Capt Rod — WDH9459 — position and weather

sailwx.info

Track history (hours):
 
Tides and Currents Weather Stations Pressure Air Temp Water Temp Dewpoint Dewpoint Depression Visibility Wind Speed Wind Dir Waves Ship Positions

Capt Rod

Owner: REC Marine Logistics LLC, Galliano, LA. More information available from US FCC via Universal Licensing System and Coast Guard Vessel Documentation Center.

Last reported at 2017-Dec-04 10:30 UTC. Time now 2018-Jan-19 07:26 UTC.
Position N 29°48' W 092°09'.
Warning: this ship's position is 45 days out of date.

Length 16 m; draft 1.5 m.

Type: Other ship. MMSI: 367668280.

Date/timePositionNaut miles runAvg speedWind from/ knotsBaromVisibWave heightAir tempDewpointWater temp
2017-Dec-04 10:30N 29°48' W 092°09'0 0.0
2017-Dec-04 10:00N 29°48' W 092°09'0 0.2
2017-Dec-04 09:30N 29°47' W 092°09'0 0.0
2017-Dec-04 09:00N 29°47' W 092°09'0 0.0
2017-Dec-04 08:30N 29°47' W 092°09'0 0.0
2017-Dec-04 08:00N 29°47' W 092°09'0 0.0
2017-Dec-04 07:30N 29°47' W 092°09'0 0.0
2017-Dec-04 07:00N 29°47' W 092°09'0 0.0
2017-Dec-04 06:30N 29°47' W 092°09'0 0.0
2017-Dec-04 06:00N 29°47' W 092°09'0 0.0
2017-Dec-04 05:30N 29°47' W 092°09'0 0.0
2017-Dec-04 05:00N 29°47' W 092°09'0 0.0
2017-Dec-04 04:30N 29°47' W 092°09'4 7.6
2017-Dec-04 04:00N 29°44' W 092°06'9 0.2
2017-Dec-02 12:06N 29°37' W 092°01'317.4
2017-Dec-02 11:55N 29°40' W 092°03'614.2
2017-Dec-02 11:31N 29°45' W 092°07'3 6.8
2017-Dec-02 11:00N 29°48' W 092°09'0 0.0
2017-Dec-02 10:30N 29°48' W 092°09'0 0.0
2017-Dec-02 10:00N 29°48' W 092°09'0 0.0
2017-Dec-02 09:30N 29°48' W 092°09'0 0.0
2017-Dec-02 09:00N 29°48' W 092°09'0 0.4
2017-Dec-02 08:30N 29°47' W 092°09'2 4.2
2017-Dec-02 08:00N 29°47' W 092°11'0 0.0
2017-Dec-02 07:30N 29°47' W 092°11'0 0.0
2017-Dec-02 07:00N 29°47' W 092°11'1 1.7
2017-Dec-02 06:30N 29°47' W 092°10'1 2.7
2017-Dec-02 06:00N 29°48' W 092°09'0 0.0
2017-Dec-02 05:30N 29°48' W 092°09'0 0.2
2017-Dec-02 05:00N 29°47' W 092°09'0 0.0
2017-Dec-02 04:30N 29°47' W 092°09'0 0.0
2017-Dec-02 04:00N 29°47' W 092°09'0 0.0
2017-Dec-02 03:30N 29°47' W 092°09'0 0.0
2017-Dec-02 03:00N 29°47' W 092°09'0 0.1
2017-Dec-02 02:30N 29°47' W 092°09'9 0.6
2017-Dec-01 11:52N 29°40' W 092°03'514.9
2017-Dec-01 11:30N 29°44' W 092°07'4 7.4
2017-Dec-01 11:00N 29°48' W 092°09'0 0.1
2017-Dec-01 10:30N 29°48' W 092°09'0 0.0
2017-Dec-01 10:00N 29°48' W 092°09'0 0.0
2017-Dec-01 09:30N 29°48' W 092°09'0 0.1
2017-Dec-01 09:00N 29°48' W 092°09'0 0.0
2017-Dec-01 08:30N 29°48' W 092°09'0 0.0
2017-Dec-01 08:00N 29°48' W 092°09'0 0.0
2017-Dec-01 07:30N 29°48' W 092°09'0 0.0
2017-Dec-01 07:00N 29°48' W 092°09'0 0.0
2017-Dec-01 06:30N 29°48' W 092°09'0 0.0
2017-Dec-01 06:00N 29°48' W 092°09'0 0.1
2017-Dec-01 05:30N 29°48' W 092°09'0 0.0
2017-Dec-01 05:00N 29°48' W 092°09'0 0.0
2017-Dec-01 04:30N 29°48' W 092°09'0 0.0
2017-Dec-01 04:00N 29°48' W 092°09'0 0.0
2017-Dec-01 03:30N 29°48' W 092°09'1 2.5
2017-Dec-01 03:01N 29°46' W 092°08'6 0.1
2017-Nov-29 10:00N 29°42' W 092°04'713.8
2017-Nov-29 09:30N 29°47' W 092°09'0 0.5
2017-Nov-29 09:00N 29°48' W 092°09'0 0.0
2017-Nov-29 08:30N 29°48' W 092°09'0 0.0
2017-Nov-29 08:00N 29°48' W 092°09'0 0.0
2017-Nov-29 07:30N 29°48' W 092°09'0 0.0
2017-Nov-29 07:00N 29°48' W 092°09'0 0.0
2017-Nov-29 06:30N 29°48' W 092°09'0 0.0
2017-Nov-29 06:00N 29°48' W 092°09'0 0.0
2017-Nov-29 05:30N 29°48' W 092°09'0 0.0
2017-Nov-29 05:00N 29°48' W 092°09'0 0.0
2017-Nov-29 04:30N 29°48' W 092°09'0 0.0
2017-Nov-29 04:00N 29°48' W 092°09'0 0.0
2017-Nov-29 03:30N 29°48' W 092°09'0 0.2
2017-Nov-29 03:00N 29°47' W 092°09'0 0.0
2017-Nov-29 02:30N 29°47' W 092°09'0 0.0
2017-Nov-29 02:00N 29°47' W 092°09'0 0.0
2017-Nov-29 01:30N 29°47' W 092°09'0 0.2
2017-Nov-29 01:00N 29°48' W 092°09'0 0.0
2017-Nov-29 00:30N 29°48' W 092°09'0 0.0
2017-Nov-29 00:00N 29°48' W 092°09'8 0.7
2017-Nov-28 11:54N 29°41' W 092°03'717.1
2017-Nov-28 11:30N 29°46' W 092°08'2 3.2
2017-Nov-28 11:00N 29°48' W 092°09'0 0.0
2017-Nov-28 10:30N 29°48' W 092°09'0 0.0
2017-Nov-28 10:00N 29°48' W 092°09'0 0.1
2017-Nov-28 09:30N 29°48' W 092°09'0 0.0
2017-Nov-28 09:00N 29°48' W 092°09'0 0.0
2017-Nov-28 08:30N 29°48' W 092°09'0 0.1
2017-Nov-28 08:00N 29°47' W 092°09'2 4.3
2017-Nov-28 07:30N 29°47' W 092°11'0 0.1
2017-Nov-28 07:00N 29°47' W 092°11'1 1.7
2017-Nov-28 06:30N 29°47' W 092°10'1 2.9
2017-Nov-28 06:00N 29°48' W 092°09'0 0.0
2017-Nov-28 05:30N 29°48' W 092°09'0 0.0
2017-Nov-28 04:30N 29°48' W 092°09'0 0.0
2017-Nov-28 04:00N 29°48' W 092°09'0 0.0
2017-Nov-28 03:30N 29°48' W 092°09'0 0.0
2017-Nov-28 03:00N 29°48' W 092°09'0 0.1
2017-Nov-28 02:30N 29°47' W 092°09'8 0.5
2017-Nov-27 11:37N 29°41' W 092°04'217.6
2017-Nov-27 11:30N 29°42' W 092°05'612.4
2017-Nov-27 11:01N 29°48' W 092°09'0 0.0
2017-Nov-27 10:31N 29°48' W 092°09'0 0.0
2017-Nov-27 10:00N 29°48' W 092°09'0 0.0
2017-Nov-27 09:31N 29°48' W 092°09'0 0.0
2017-Nov-27 09:01N 29°48' W 092°09'0 0.0
2017-Nov-27 08:30N 29°48' W 092°09'0 0.0
2017-Nov-27 08:01N 29°48' W 092°09'0 0.0
2017-Nov-27 07:31N 29°48' W 092°09'0 0.0
2017-Nov-27 07:00N 29°48' W 092°09'0 0.0
2017-Nov-27 06:30N 29°48' W 092°09'0 0.0
2017-Nov-27 06:00N 29°48' W 092°09'0 0.0
2017-Nov-27 05:30N 29°48' W 092°09'0 0.0
2017-Nov-27 05:01N 29°48' W 092°09'0 0.0
2017-Nov-27 04:31N 29°48' W 092°09'0 0.0
2017-Nov-27 04:00N 29°48' W 092°09'0 0.9
2017-Nov-27 03:31N 29°47' W 092°09'2 4.0
2017-Nov-27 03:01N 29°47' W 092°11'0 0.0
2017-Nov-27 02:30N 29°47' W 092°11'5 9.3
2017-Nov-27 02:00N 29°44' W 092°06'4 0.3
2017-Nov-26 11:38N 29°41' W 092°04'317.1
2017-Nov-26 11:27N 29°43' W 092°06'510.5
2017-Nov-26 11:00N 29°48' W 092°09'0 0.0
2017-Nov-26 10:31N 29°48' W 092°09'0 0.0
2017-Nov-26 10:01N 29°48' W 092°09'0 0.0
2017-Nov-26 09:30N 29°48' W 092°09'0 0.0
2017-Nov-26 09:00N 29°48' W 092°09'0 0.0
2017-Nov-26 08:30N 29°48' W 092°09'0 0.0
2017-Nov-26 08:00N 29°48' W 092°09'0 0.0
2017-Nov-26 07:30N 29°48' W 092°09'0 0.0
2017-Nov-26 07:00N 29°48' W 092°09'0 0.0
2017-Nov-26 06:30N 29°48' W 092°09'0 0.0
2017-Nov-26 06:00N 29°48' W 092°09'0 0.0
2017-Nov-26 05:30N 29°48' W 092°09'0 0.0
2017-Nov-26 05:00N 29°48' W 092°09'0 0.0
2017-Nov-26 04:30N 29°48' W 092°09'1 2.8
2017-Nov-26 04:00N 29°47' W 092°10'1 1.9
2017-Nov-26 03:30N 29°47' W 092°11'2 4.1
2017-Nov-26 03:00N 29°47' W 092°09'0 0.8
2017-Nov-26 02:30N 29°48' W 092°09'0 0.0
2017-Nov-26 02:00N 29°48' W 092°09'0 0.0
2017-Nov-26 01:30N 29°48' W 092°09'9 0.2
2017-Nov-24 11:56N 29°40' W 092°03'614.1
2017-Nov-24 11:31N 29°45' W 092°07'3 5.6
2017-Nov-24 11:00N 29°48' W 092°09'  
Track history (hours):
 
Tides and Currents Weather Stations Pressure Air Temp Water Temp Dewpoint Dewpoint Depression Visibility Wind Speed Wind Dir Waves Ship Positions

Capt Rod

Owner: REC Marine Logistics LLC, Galliano, LA. More information available from US FCC via Universal Licensing System and Coast Guard Vessel Documentation Center.

Last reported at 2017-Dec-04 10:30 UTC. Time now 2018-Jan-19 07:26 UTC.
Position N 29°48' W 092°09'.
Warning: this ship's position is 45 days out of date.

Length 16 m; draft 1.5 m.

Type: Other ship. MMSI: 367668280.

Date/timePositionNaut miles runAvg speedWind from/ knotsBaromVisibWave heightAir tempDewpointWater temp
2017-Dec-04 10:30N 29°48' W 092°09'0 0.0
2017-Dec-04 10:00N 29°48' W 092°09'0 0.2
2017-Dec-04 09:30N 29°47' W 092°09'0 0.0
2017-Dec-04 09:00N 29°47' W 092°09'0 0.0
2017-Dec-04 08:30N 29°47' W 092°09'0 0.0
2017-Dec-04 08:00N 29°47' W 092°09'0 0.0
2017-Dec-04 07:30N 29°47' W 092°09'0 0.0
2017-Dec-04 07:00N 29°47' W 092°09'0 0.0
2017-Dec-04 06:30N 29°47' W 092°09'0 0.0
2017-Dec-04 06:00N 29°47' W 092°09'0 0.0
2017-Dec-04 05:30N 29°47' W 092°09'0 0.0
2017-Dec-04 05:00N 29°47' W 092°09'0 0.0
2017-Dec-04 04:30N 29°47' W 092°09'4 7.6
2017-Dec-04 04:00N 29°44' W 092°06'9 0.2
2017-Dec-02 12:06N 29°37' W 092°01'317.4
2017-Dec-02 11:55N 29°40' W 092°03'614.2
2017-Dec-02 11:31N 29°45' W 092°07'3 6.8
2017-Dec-02 11:00N 29°48' W 092°09'0 0.0
2017-Dec-02 10:30N 29°48' W 092°09'0 0.0
2017-Dec-02 10:00N 29°48' W 092°09'0 0.0
2017-Dec-02 09:30N 29°48' W 092°09'0 0.0
2017-Dec-02 09:00N 29°48' W 092°09'0 0.4
2017-Dec-02 08:30N 29°47' W 092°09'2 4.2
2017-Dec-02 08:00N 29°47' W 092°11'0 0.0
2017-Dec-02 07:30N 29°47' W 092°11'0 0.0
2017-Dec-02 07:00N 29°47' W 092°11'1 1.7
2017-Dec-02 06:30N 29°47' W 092°10'1 2.7
2017-Dec-02 06:00N 29°48' W 092°09'0 0.0
2017-Dec-02 05:30N 29°48' W 092°09'0 0.2
2017-Dec-02 05:00N 29°47' W 092°09'0 0.0
2017-Dec-02 04:30N 29°47' W 092°09'0 0.0
2017-Dec-02 04:00N 29°47' W 092°09'0 0.0
2017-Dec-02 03:30N 29°47' W 092°09'0 0.0
2017-Dec-02 03:00N 29°47' W 092°09'0 0.1
2017-Dec-02 02:30N 29°47' W 092°09'9 0.6
2017-Dec-01 11:52N 29°40' W 092°03'514.9
2017-Dec-01 11:30N 29°44' W 092°07'4 7.4
2017-Dec-01 11:00N 29°48' W 092°09'0 0.1
2017-Dec-01 10:30N 29°48' W 092°09'0 0.0
2017-Dec-01 10:00N 29°48' W 092°09'0 0.0
2017-Dec-01 09:30N 29°48' W 092°09'0 0.1
2017-Dec-01 09:00N 29°48' W 092°09'0 0.0
2017-Dec-01 08:30N 29°48' W 092°09'0 0.0
2017-Dec-01 08:00N 29°48' W 092°09'0 0.0
2017-Dec-01 07:30N 29°48' W 092°09'0 0.0
2017-Dec-01 07:00N 29°48' W 092°09'0 0.0
2017-Dec-01 06:30N 29°48' W 092°09'0 0.0
2017-Dec-01 06:00N 29°48' W 092°09'0 0.1
2017-Dec-01 05:30N 29°48' W 092°09'0 0.0
2017-Dec-01 05:00N 29°48' W 092°09'0 0.0
2017-Dec-01 04:30N 29°48' W 092°09'0 0.0
2017-Dec-01 04:00N 29°48' W 092°09'0 0.0
2017-Dec-01 03:30N 29°48' W 092°09'1 2.5
2017-Dec-01 03:01N 29°46' W 092°08'6 0.1
2017-Nov-29 10:00N 29°42' W 092°04'713.8
2017-Nov-29 09:30N 29°47' W 092°09'0 0.5
2017-Nov-29 09:00N 29°48' W 092°09'0 0.0
2017-Nov-29 08:30N 29°48' W 092°09'0 0.0
2017-Nov-29 08:00N 29°48' W 092°09'0 0.0
2017-Nov-29 07:30N 29°48' W 092°09'0 0.0
2017-Nov-29 07:00N 29°48' W 092°09'0 0.0
2017-Nov-29 06:30N 29°48' W 092°09'0 0.0
2017-Nov-29 06:00N 29°48' W 092°09'0 0.0
2017-Nov-29 05:30N 29°48' W 092°09'0 0.0
2017-Nov-29 05:00N 29°48' W 092°09'0 0.0
2017-Nov-29 04:30N 29°48' W 092°09'0 0.0
2017-Nov-29 04:00N 29°48' W 092°09'0 0.0
2017-Nov-29 03:30N 29°48' W 092°09'0 0.2
2017-Nov-29 03:00N 29°47' W 092°09'0 0.0
2017-Nov-29 02:30N 29°47' W 092°09'0 0.0
2017-Nov-29 02:00N 29°47' W 092°09'0 0.0
2017-Nov-29 01:30N 29°47' W 092°09'0 0.2
2017-Nov-29 01:00N 29°48' W 092°09'0 0.0
2017-Nov-29 00:30N 29°48' W 092°09'0 0.0
2017-Nov-29 00:00N 29°48' W 092°09'8 0.7
2017-Nov-28 11:54N 29°41' W 092°03'717.1
2017-Nov-28 11:30N 29°46' W 092°08'2 3.2
2017-Nov-28 11:00N 29°48' W 092°09'0 0.0
2017-Nov-28 10:30N 29°48' W 092°09'0 0.0
2017-Nov-28 10:00N 29°48' W 092°09'0 0.1
2017-Nov-28 09:30N 29°48' W 092°09'0 0.0
2017-Nov-28 09:00N 29°48' W 092°09'0 0.0
2017-Nov-28 08:30N 29°48' W 092°09'0 0.1
2017-Nov-28 08:00N 29°47' W 092°09'2 4.3
2017-Nov-28 07:30N 29°47' W 092°11'0 0.1
2017-Nov-28 07:00N 29°47' W 092°11'1 1.7
2017-Nov-28 06:30N 29°47' W 092°10'1 2.9
2017-Nov-28 06:00N 29°48' W 092°09'0 0.0
2017-Nov-28 05:30N 29°48' W 092°09'0 0.0
2017-Nov-28 04:30N 29°48' W 092°09'0 0.0
2017-Nov-28 04:00N 29°48' W 092°09'0 0.0
2017-Nov-28 03:30N 29°48' W 092°09'0 0.0
2017-Nov-28 03:00N 29°48' W 092°09'0 0.1
2017-Nov-28 02:30N 29°47' W 092°09'8 0.5
2017-Nov-27 11:37N 29°41' W 092°04'217.6
2017-Nov-27 11:30N 29°42' W 092°05'612.4
2017-Nov-27 11:01N 29°48' W 092°09'0 0.0
2017-Nov-27 10:31N 29°48' W 092°09'0 0.0
2017-Nov-27 10:00N 29°48' W 092°09'0 0.0
2017-Nov-27 09:31N 29°48' W 092°09'0 0.0
2017-Nov-27 09:01N 29°48' W 092°09'0 0.0
2017-Nov-27 08:30N 29°48' W 092°09'0 0.0
2017-Nov-27 08:01N 29°48' W 092°09'0 0.0
2017-Nov-27 07:31N 29°48' W 092°09'0 0.0
2017-Nov-27 07:00N 29°48' W 092°09'0 0.0
2017-Nov-27 06:30N 29°48' W 092°09'0 0.0
2017-Nov-27 06:00N 29°48' W 092°09'0 0.0
2017-Nov-27 05:30N 29°48' W 092°09'0 0.0
2017-Nov-27 05:01N 29°48' W 092°09'0 0.0
2017-Nov-27 04:31N 29°48' W 092°09'0 0.0
2017-Nov-27 04:00N 29°48' W 092°09'0 0.9
2017-Nov-27 03:31N 29°47' W 092°09'2 4.0
2017-Nov-27 03:01N 29°47' W 092°11'0 0.0
2017-Nov-27 02:30N 29°47' W 092°11'5 9.3
2017-Nov-27 02:00N 29°44' W 092°06'4 0.3
2017-Nov-26 11:38N 29°41' W 092°04'317.1
2017-Nov-26 11:27N 29°43' W 092°06'510.5
2017-Nov-26 11:00N 29°48' W 092°09'0 0.0
2017-Nov-26 10:31N 29°48' W 092°09'0 0.0
2017-Nov-26 10:01N 29°48' W 092°09'0 0.0
2017-Nov-26 09:30N 29°48' W 092°09'0 0.0
2017-Nov-26 09:00N 29°48' W 092°09'0 0.0
2017-Nov-26 08:30N 29°48' W 092°09'0 0.0
2017-Nov-26 08:00N 29°48' W 092°09'0 0.0
2017-Nov-26 07:30N 29°48' W 092°09'0 0.0
2017-Nov-26 07:00N 29°48' W 092°09'0 0.0
2017-Nov-26 06:30N 29°48' W 092°09'0 0.0
2017-Nov-26 06:00N 29°48' W 092°09'0 0.0
2017-Nov-26 05:30N 29°48' W 092°09'0 0.0
2017-Nov-26 05:00N 29°48' W 092°09'0 0.0
2017-Nov-26 04:30N 29°48' W 092°09'1 2.8
2017-Nov-26 04:00N 29°47' W 092°10'1 1.9
2017-Nov-26 03:30N 29°47' W 092°11'2 4.1
2017-Nov-26 03:00N 29°47' W 092°09'0 0.8
2017-Nov-26 02:30N 29°48' W 092°09'0 0.0
2017-Nov-26 02:00N 29°48' W 092°09'0 0.0
2017-Nov-26 01:30N 29°48' W 092°09'9 0.2
2017-Nov-24 11:56N 29°40' W 092°03'614.1
2017-Nov-24 11:31N 29°45' W 092°07'3 5.6
2017-Nov-24 11:00N 29°48' W 092°09'  

Dump ship's entire track history